createdAt,value
2022-08-23T00:01:39.531Z,87.21
2022-08-23T00:04:09.594Z,86.57
2022-08-23T00:06:39.616Z,87.04
2022-08-23T00:09:07.649Z,87.09
2022-08-23T00:11:36.876Z,87.45
2022-08-23T00:14:19.735Z,87.17
2022-08-23T00:16:47.252Z,87.26
2022-08-23T00:19:16.766Z,87.05
2022-08-23T00:21:44.586Z,87.57
2022-08-23T00:24:12.393Z,87.13
2022-08-23T00:27:09.047Z,86.58
2022-08-23T00:29:37.761Z,87.10
2022-08-23T00:32:07.680Z,87.72
2022-08-23T00:34:36.041Z,88.17
2022-08-23T00:37:03.984Z,87.98
2022-08-23T00:39:31.408Z,88.25
2022-08-23T00:42:30.314Z,89.05
2022-08-23T00:45:17.444Z,88.93
2022-08-23T00:47:45.108Z,88.66
2022-08-23T00:50:23.562Z,89.08
2022-08-23T00:53:06.450Z,88.89
2022-08-23T00:55:34.250Z,88.08
2022-08-23T00:58:01.951Z,87.89
2022-08-23T01:00:29.778Z,88.01
2022-08-23T01:02:57.921Z,88.35
2022-08-23T01:05:27.952Z,88.50
2022-08-23T01:07:56.480Z,88.75
2022-08-23T01:10:37.540Z,88.60
2022-08-23T01:13:26.039Z,88.15
2022-08-23T01:15:56.633Z,88.28
2022-08-23T01:18:25.134Z,88.36
2022-08-23T01:20:56.991Z,88.32
2022-08-23T01:23:36.714Z,88.27
2022-08-23T01:26:04.555Z,88.77
2022-08-23T01:28:32.105Z,88.45
2022-08-23T01:30:59.687Z,87.88
2022-08-23T01:33:27.152Z,87.58
2022-08-23T01:35:56.422Z,87.64
2022-08-23T01:38:24.569Z,87.90
2022-08-23T01:40:52.286Z,87.97
2022-08-23T01:43:21.621Z,88.56
2022-08-23T01:45:51.976Z,88.84
2022-08-23T01:48:21.654Z,88.55
2022-08-23T01:50:50.778Z,88.40
2022-08-23T01:53:18.306Z,88.30
2022-08-23T01:55:49.617Z,88.17
2022-08-23T01:58:19.175Z,87.90
2022-08-23T02:00:46.529Z,87.41
2022-08-23T02:03:14.128Z,88.31
2022-08-23T02:05:42.980Z,88.06
2022-08-23T02:08:30.279Z,88.79
2022-08-23T02:10:59.329Z,88.78
2022-08-23T02:13:27.538Z,88.46
2022-08-23T02:15:59.705Z,88.18
2022-08-23T02:18:27.390Z,88.42
2022-08-23T02:20:54.782Z,88.54
2022-08-23T02:23:22.343Z,88.70
2022-08-23T02:25:51.873Z,88.72
2022-08-23T02:28:23.351Z,88.28
2022-08-23T02:30:51.534Z,88.00
2022-08-23T02:33:19.574Z,87.19
2022-08-23T02:35:48.221Z,86.86
2022-08-23T02:38:18.258Z,87.33
2022-08-23T02:40:45.969Z,87.39
2022-08-23T02:43:13.772Z,87.16
2022-08-23T02:45:41.659Z,87.48
2022-08-23T02:48:09.291Z,87.68
2022-08-23T02:50:52.487Z,87.67
2022-08-23T02:53:19.989Z,87.65
2022-08-23T02:55:48.356Z,87.84
2022-08-23T02:58:15.704Z,87.07
2022-08-23T03:00:47.364Z,86.77
2022-08-23T03:03:15.012Z,86.27
2022-08-23T03:05:43.352Z,87.03
2022-08-23T03:08:11.265Z,86.96
2022-08-23T03:10:47.588Z,87.24
2022-08-23T03:13:15.062Z,86.97
2022-08-23T03:15:43.024Z,87.41
2022-08-23T03:18:13.155Z,87.13
2022-08-23T03:20:41.875Z,87.30
2022-08-23T03:23:11.106Z,87.46
2022-08-23T03:25:40.510Z,87.51
2022-08-23T03:28:24.290Z,88.64
2022-08-23T03:30:51.771Z,88.25
2022-08-23T03:33:19.224Z,88.65
2022-08-23T03:35:47.472Z,89.35
2022-08-23T03:38:15.158Z,89.39
2022-08-23T03:40:43.744Z,89.07
2022-08-23T03:43:11.336Z,89.03
2022-08-23T03:45:38.736Z,88.29
2022-08-23T03:48:06.962Z,88.56
2022-08-23T03:50:36.237Z,88.71
2022-08-23T03:53:03.652Z,88.84
2022-08-23T03:55:31.058Z,89.00
2022-08-23T03:58:00.874Z,88.83
2022-08-23T04:00:28.438Z,88.49
2022-08-23T04:02:56.065Z,88.96
2022-08-23T04:05:25.508Z,89.01
2022-08-23T04:07:58.616Z,88.97
2022-08-23T04:10:26.194Z,89.49
2022-08-23T04:12:55.918Z,89.63
2022-08-23T04:15:24.948Z,89.26
2022-08-23T04:17:52.483Z,88.65
2022-08-23T04:20:20.081Z,88.65
2022-08-23T04:22:55.708Z,87.79
2022-08-23T04:25:34.020Z,87.77
2022-08-23T04:28:03.628Z,86.82
2022-08-23T04:30:32.343Z,86.95
2022-08-23T04:33:00.049Z,86.97
2022-08-23T04:35:30.007Z,86.45
2022-08-23T04:37:57.694Z,86.62
2022-08-23T04:40:44.646Z,86.40
2022-08-23T04:43:13.064Z,86.77
2022-08-23T04:45:41.245Z,86.15
2022-08-23T04:48:15.045Z,86.22
2022-08-23T04:50:47.887Z,86.22
2022-08-23T04:53:18.615Z,86.35
2022-08-23T04:55:55.292Z,86.84
2022-08-23T04:58:23.011Z,86.25
2022-08-23T05:00:52.770Z,85.57
2022-08-23T05:03:25.658Z,85.75
2022-08-23T05:05:54.132Z,84.85
2022-08-23T05:08:26.215Z,84.45
2022-08-23T05:10:54.046Z,84.87
2022-08-23T05:13:22.345Z,85.51
2022-08-23T05:15:51.486Z,86.66
2022-08-23T05:18:20.445Z,86.61
2022-08-23T05:20:47.865Z,86.61
2022-08-23T05:23:15.398Z,86.59
2022-08-23T05:25:49.957Z,86.09
2022-08-23T05:28:31.444Z,85.95
2022-08-23T05:31:07.072Z,85.96
2022-08-23T05:33:49.919Z,86.03
2022-08-23T05:36:23.577Z,86.29
2022-08-23T05:38:53.463Z,86.03
2022-08-23T05:41:21.850Z,85.89
2022-08-23T05:43:55.899Z,85.27
2022-08-23T05:46:28.425Z,84.45
2022-08-23T05:49:20.982Z,85.93
2022-08-23T05:51:51.675Z,84.45
2022-08-23T05:54:21.100Z,85.03
2022-08-23T05:57:02.450Z,83.56
2022-08-23T05:59:29.852Z,85.11
2022-08-23T06:01:57.593Z,84.58
2022-08-23T06:04:25.308Z,84.83
2022-08-23T06:06:53.528Z,84.26
2022-08-23T06:09:21.135Z,84.92
2022-08-23T06:11:48.701Z,83.54
2022-08-23T06:14:17.390Z,83.39
2022-08-23T06:16:46.803Z,84.01
2022-08-23T06:19:19.315Z,82.99
2022-08-23T06:21:49.766Z,84.35
2022-08-23T06:24:23.782Z,82.78
2022-08-23T06:27:01.134Z,81.25
2022-08-23T06:29:28.861Z,82.48
2022-08-23T06:32:17.129Z,82.87
2022-08-23T06:35:32.843Z,83.14
2022-08-23T06:37:59.466Z,82.64
2022-08-23T06:40:46.405Z,83.29
2022-08-23T06:43:26.589Z,81.98
2022-08-23T06:46:20.572Z,80.67
2022-08-23T06:48:53.582Z,81.61
2022-08-23T06:51:23.836Z,81.84
2022-08-23T06:54:14.339Z,82.34
2022-08-23T06:57:03.281Z,81.72
2022-08-23T06:59:41.889Z,80.92
2022-08-23T07:02:19.279Z,81.40
2022-08-23T07:05:14.939Z,81.26
2022-08-23T07:07:54.570Z,81.44
2022-08-23T07:10:22.141Z,81.87
2022-08-23T07:12:50.483Z,81.05
2022-08-23T07:15:21.603Z,81.50
2022-08-23T07:17:50.915Z,80.80
2022-08-23T07:20:19.849Z,81.60
2022-08-23T07:22:47.747Z,79.87
2022-08-23T07:25:17.279Z,79.24
2022-08-23T07:27:54.393Z,78.67
2022-08-23T07:30:22.793Z,77.65
2022-08-23T07:32:51.763Z,78.03
2022-08-23T07:35:23.457Z,78.51
2022-08-23T07:37:53.846Z,77.52
2022-08-23T07:40:21.961Z,77.95
2022-08-23T07:42:57.377Z,78.55
2022-08-23T07:45:25.430Z,79.67
2022-08-23T07:48:01.639Z,76.81
2022-08-23T07:50:33.044Z,79.88
2022-08-23T07:53:03.520Z,80.15
2022-08-23T07:55:31.374Z,79.94
2022-08-23T07:58:13.680Z,79.67
2022-08-23T08:01:21.244Z,78.17
2022-08-23T08:03:55.546Z,78.48
2022-08-23T08:06:31.247Z,78.65
2022-08-23T08:08:59.951Z,78.90
2022-08-23T08:11:34.252Z,77.05
2022-08-23T08:14:09.413Z,78.95
2022-08-23T08:16:47.236Z,76.51
2022-08-23T08:19:20.032Z,77.34
2022-08-23T08:22:22.981Z,75.56
2022-08-23T08:25:10.245Z,75.92
2022-08-23T08:27:40.319Z,74.53
2022-08-23T08:30:11.944Z,73.46
2022-08-23T08:32:47.013Z,73.03
2022-08-23T08:35:16.064Z,75.33
2022-08-23T08:37:44.251Z,72.46
2022-08-23T08:40:12.019Z,75.17
2022-08-23T08:42:46.449Z,74.53
2022-08-23T08:45:16.992Z,75.60
2022-08-23T08:48:04.169Z,72.10
2022-08-23T08:50:42.165Z,72.52
2022-08-23T08:53:19.502Z,72.15
2022-08-23T08:56:16.532Z,73.99
2022-08-23T08:58:53.009Z,74.31
2022-08-23T09:01:29.776Z,74.52
2022-08-23T09:03:57.382Z,71.64
2022-08-23T09:06:34.730Z,70.42
2022-08-23T09:09:41.860Z,70.31
2022-08-23T09:12:38.062Z,71.13
2022-08-23T09:15:21.594Z,67.90
2022-08-23T09:18:18.053Z,68.31
2022-08-23T09:20:48.830Z,68.64
2022-08-23T09:23:20.058Z,70.06
2022-08-23T09:26:03.477Z,70.26
2022-08-23T09:28:37.113Z,71.49
2022-08-23T09:31:08.287Z,70.91
2022-08-23T09:33:41.273Z,69.97
2022-08-23T09:36:16.814Z,70.77
2022-08-23T09:38:53.044Z,70.17
2022-08-23T09:41:27.961Z,71.33
2022-08-23T09:44:02.068Z,71.36
2022-08-23T09:46:36.227Z,73.01
2022-08-23T09:49:28.104Z,70.84
2022-08-23T09:52:02.678Z,70.66
2022-08-23T09:54:34.084Z,70.54
2022-08-23T09:57:05.305Z,69.13
2022-08-23T09:59:43.266Z,70.60
2022-08-23T10:02:30.625Z,69.73
2022-08-23T10:05:18.514Z,69.44
2022-08-23T10:08:13.970Z,68.90
2022-08-23T10:10:47.035Z,68.62
2022-08-23T10:13:22.028Z,68.91
2022-08-23T10:16:01.988Z,68.64
2022-08-23T10:18:43.950Z,69.17
2022-08-23T10:21:27.533Z,67.70
2022-08-23T10:24:16.744Z,67.77
2022-08-23T10:27:27.435Z,66.63
2022-08-23T10:30:03.421Z,66.64
2022-08-23T10:32:34.050Z,65.28
2022-08-23T10:35:20.195Z,65.20
2022-08-23T10:38:08.859Z,66.31
2022-08-23T10:41:05.430Z,64.05
2022-08-23T10:43:55.052Z,63.54
2022-08-23T10:46:23.177Z,63.64
2022-08-23T10:48:55.573Z,64.03
2022-08-23T10:51:35.649Z,62.50
2022-08-23T10:54:08.904Z,62.13
2022-08-23T10:56:36.589Z,62.17
2022-08-23T10:59:33.524Z,62.68
2022-08-23T11:02:04.151Z,63.27
2022-08-23T11:04:57.612Z,61.66
2022-08-23T11:07:38.839Z,60.46
2022-08-23T11:10:37.791Z,61.47
2022-08-23T11:13:13.516Z,61.73
2022-08-23T11:16:02.400Z,62.02
2022-08-23T11:18:34.193Z,62.23
2022-08-23T11:21:25.319Z,61.26
2022-08-23T11:23:59.276Z,61.32
2022-08-23T11:26:30.388Z,61.83
2022-08-23T11:29:08.109Z,61.15
2022-08-23T11:31:43.164Z,61.16
2022-08-23T11:34:49.745Z,60.83
2022-08-23T11:37:20.554Z,60.80
2022-08-23T11:39:58.732Z,60.17
2022-08-23T11:42:37.592Z,59.84
2022-08-23T11:45:24.297Z,60.29
2022-08-23T11:48:19.585Z,59.71
2022-08-23T11:51:08.710Z,59.34
2022-08-23T11:53:54.432Z,58.93
2022-08-23T11:56:31.124Z,61.07
2022-08-23T11:59:20.386Z,60.70
2022-08-23T12:01:48.079Z,58.51
2022-08-23T12:04:35.626Z,58.83
2022-08-23T12:07:07.451Z,59.71
2022-08-23T12:09:36.690Z,57.97
2022-08-23T12:12:04.148Z,57.41
2022-08-23T12:14:33.128Z,58.92
2022-08-23T12:17:27.561Z,58.47
2022-08-23T12:20:00.167Z,57.06
2022-08-23T12:22:35.219Z,56.11
2022-08-23T12:25:05.479Z,56.33
2022-08-23T12:27:44.309Z,55.16
2022-08-23T12:30:30.921Z,56.16
2022-08-23T12:33:04.954Z,57.25
2022-08-23T12:35:45.466Z,55.34
2022-08-23T12:38:35.032Z,57.35
2022-08-23T12:41:21.533Z,56.26
2022-08-23T12:44:04.222Z,55.05
2022-08-23T12:46:35.870Z,55.97
2022-08-23T12:49:04.310Z,55.85
2022-08-23T12:51:31.893Z,56.02
2022-08-23T12:54:11.902Z,57.01
2022-08-23T12:56:39.353Z,55.03
2022-08-23T12:59:07.708Z,55.18
2022-08-23T13:01:37.341Z,55.06
2022-08-23T13:04:11.649Z,53.91
2022-08-23T13:06:49.519Z,53.74
2022-08-23T13:09:27.915Z,53.73
2022-08-23T13:11:58.050Z,54.36
2022-08-23T13:14:31.176Z,54.22
2022-08-23T13:17:14.508Z,54.35
2022-08-23T13:19:42.161Z,55.54
2022-08-23T13:22:13.465Z,53.63
2022-08-23T13:24:42.950Z,53.77
2022-08-23T13:27:17.471Z,53.11
2022-08-23T13:30:05.374Z,54.40
2022-08-23T13:32:44.236Z,53.74
2022-08-23T13:35:27.156Z,53.53
2022-08-23T13:37:57.270Z,53.74
2022-08-23T13:40:27.014Z,54.59
2022-08-23T13:43:05.217Z,53.85
2022-08-23T13:45:44.705Z,54.35
2022-08-23T13:48:34.226Z,54.54
2022-08-23T13:51:25.970Z,54.14
2022-08-23T13:53:54.779Z,54.35
2022-08-23T13:56:22.239Z,54.39
2022-08-23T13:58:57.013Z,53.82
2022-08-23T14:01:24.684Z,54.59
2022-08-23T14:03:52.264Z,55.03
2022-08-23T14:06:20.045Z,54.75
2022-08-23T14:08:48.632Z,54.77
2022-08-23T14:11:16.279Z,55.37
2022-08-23T14:13:47.385Z,56.92
2022-08-23T14:16:34.952Z,55.70
2022-08-23T14:21:53.822Z,57.93
2022-08-23T14:24:21.332Z,57.94
2022-08-23T14:26:51.700Z,56.71
2022-08-23T14:29:23.007Z,57.12
2022-08-23T14:31:53.402Z,57.72
2022-08-23T14:34:21.031Z,56.27
2022-08-23T14:39:35.989Z,57.40
2022-08-23T14:42:04.267Z,57.56
2022-08-23T14:44:36.313Z,57.42
2022-08-23T14:47:05.628Z,57.24
2022-08-23T14:49:34.056Z,57.73
2022-08-23T14:52:01.825Z,57.80
2022-08-23T14:54:29.185Z,57.83
2022-08-23T14:56:56.686Z,58.20
2022-08-23T14:59:23.986Z,58.71
2022-08-23T15:01:53.078Z,59.20
2022-08-23T15:04:21.381Z,60.41
2022-08-23T15:07:16.817Z,59.86
2022-08-23T15:09:36.784Z,59.19
2022-08-23T15:14:51.856Z,58.62
2022-08-23T15:17:19.496Z,58.68
2022-08-23T15:19:47.225Z,57.59
2022-08-23T15:22:15.841Z,58.00
2022-08-23T15:24:50.057Z,57.71
2022-08-23T15:27:19.175Z,58.27
2022-08-23T15:29:46.589Z,57.94
2022-08-23T15:32:13.980Z,57.56
2022-08-23T15:34:45.635Z,58.12
2022-08-23T15:37:14.016Z,58.11
2022-08-23T15:39:42.430Z,57.78
2022-08-23T15:42:10.227Z,57.90
2022-08-23T15:44:37.605Z,58.46
2022-08-23T15:47:05.716Z,57.90
2022-08-23T15:49:36.263Z,58.02
2022-08-23T15:52:04.841Z,58.24
2022-08-23T15:54:32.350Z,58.58
2022-08-23T15:56:59.749Z,59.51
2022-08-23T15:59:27.222Z,59.85
2022-08-23T16:01:54.781Z,59.55
2022-08-23T16:04:22.187Z,59.51
2022-08-23T16:06:49.635Z,59.87
2022-08-23T16:09:21.583Z,59.51
2022-08-23T16:11:49.445Z,60.16
2022-08-23T16:14:16.845Z,60.27
2022-08-23T16:16:46.825Z,60.59
2022-08-23T16:19:14.645Z,60.90
2022-08-23T16:21:44.521Z,61.97
2022-08-23T16:24:11.889Z,61.41
2022-08-23T16:26:41.949Z,62.32
2022-08-23T16:29:10.108Z,62.21
2022-08-23T16:31:39.999Z,62.02
2022-08-23T16:34:09.251Z,61.92
2022-08-23T16:36:37.050Z,62.32
2022-08-23T16:39:05.314Z,61.91
2022-08-23T16:41:32.662Z,61.72
2022-08-23T16:44:00.147Z,62.47
2022-08-23T16:46:29.003Z,62.59
2022-08-23T16:48:56.657Z,62.09
2022-08-23T16:51:24.053Z,62.99
2022-08-23T16:54:01.829Z,63.07
2022-08-23T16:56:31.954Z,63.31
2022-08-23T16:58:59.515Z,63.49
2022-08-23T17:01:27.577Z,63.25
2022-08-23T17:03:55.179Z,64.35
2022-08-23T17:06:22.613Z,64.69
2022-08-23T17:08:49.969Z,64.34
2022-08-23T17:11:18.090Z,65.27
2022-08-23T17:13:45.638Z,65.33
2022-08-23T17:16:13.117Z,64.80
2022-08-23T17:18:40.628Z,65.31
2022-08-23T17:21:08.268Z,65.66
2022-08-23T17:23:39.333Z,65.67
2022-08-23T17:26:11.140Z,66.33
2022-08-23T17:28:38.599Z,66.53
2022-08-23T17:31:06.742Z,66.94
2022-08-23T17:33:34.198Z,66.80
2022-08-23T17:36:01.690Z,66.71
2022-08-23T17:38:29.042Z,66.57
2022-08-23T17:40:56.623Z,66.57
2022-08-23T17:43:24.090Z,66.66
2022-08-23T17:45:51.676Z,67.71
2022-08-23T17:48:20.581Z,67.05
2022-08-23T17:50:48.305Z,66.68
2022-08-23T17:53:16.311Z,67.32
2022-08-23T17:55:43.998Z,66.82
2022-08-23T17:58:11.740Z,67.09
2022-08-23T18:00:39.638Z,67.42
2022-08-23T18:03:07.230Z,67.66
2022-08-23T18:05:35.468Z,68.02
2022-08-23T18:08:03.393Z,68.42
2022-08-23T18:10:31.070Z,68.39
2022-08-23T18:12:58.909Z,67.68
2022-08-23T18:15:28.973Z,67.65
2022-08-23T18:17:58.229Z,68.42
2022-08-23T18:20:29.459Z,68.76
2022-08-23T18:22:57.581Z,67.65
2022-08-23T18:25:25.177Z,67.11
2022-08-23T18:28:11.771Z,67.66
2022-08-23T18:30:46.465Z,67.22
2022-08-23T18:33:14.575Z,66.99
2022-08-23T18:35:42.003Z,67.48
2022-08-23T18:38:09.711Z,68.43
2022-08-23T18:40:45.390Z,67.87
2022-08-23T18:43:12.749Z,68.16
2022-08-23T18:45:40.235Z,68.77
2022-08-23T18:48:07.803Z,68.19
2022-08-23T18:50:35.344Z,68.39
2022-08-23T18:53:02.874Z,68.63
2022-08-23T18:55:30.510Z,68.89
2022-08-23T18:57:58.097Z,69.52
2022-08-23T19:00:25.409Z,69.43
2022-08-23T19:02:53.318Z,69.22
2022-08-23T19:05:20.787Z,69.08
2022-08-23T19:07:48.368Z,69.09
2022-08-23T19:10:19.838Z,68.63
2022-08-23T19:12:54.378Z,69.70
2022-08-23T19:15:30.423Z,70.23
2022-08-23T19:18:00.999Z,70.43
2022-08-23T19:20:28.425Z,69.51
2022-08-23T19:22:56.965Z,69.66
2022-08-23T19:25:24.659Z,69.82
2022-08-23T19:27:52.263Z,70.13
2022-08-23T19:30:19.767Z,70.07
2022-08-23T19:32:47.489Z,70.55
2022-08-23T19:35:14.873Z,71.08
2022-08-23T19:37:42.345Z,71.48
2022-08-23T19:40:10.447Z,71.73
2022-08-23T19:42:37.906Z,71.03
2022-08-23T19:45:06.624Z,71.49
2022-08-23T19:47:34.897Z,71.48
2022-08-23T19:50:04.951Z,71.52
2022-08-23T19:52:32.655Z,71.54
2022-08-23T19:55:05.712Z,71.35
2022-08-23T19:57:35.673Z,71.30
2022-08-23T20:00:09.027Z,71.29
2022-08-23T20:02:36.384Z,71.50
2022-08-23T20:05:06.821Z,70.85
2022-08-23T20:07:36.353Z,71.86
2022-08-23T20:10:07.414Z,72.08
2022-08-23T20:12:35.051Z,72.13
2022-08-23T20:15:02.637Z,72.03
2022-08-23T20:17:30.078Z,72.04
2022-08-23T20:19:57.514Z,71.96
2022-08-23T20:22:43.764Z,71.94
2022-08-23T20:25:11.193Z,71.95
2022-08-23T20:27:38.653Z,72.43
2022-08-23T20:30:07.370Z,72.65
2022-08-23T20:32:35.650Z,72.92
2022-08-23T20:35:03.804Z,72.74
2022-08-23T20:37:31.150Z,72.69
2022-08-23T20:39:58.650Z,72.67
2022-08-23T20:42:26.214Z,73.14
2022-08-23T20:44:53.671Z,73.04
2022-08-23T20:47:21.274Z,72.98
2022-08-23T20:49:48.795Z,73.00
2022-08-23T20:52:18.002Z,73.27
2022-08-23T20:54:46.272Z,73.31
2022-08-23T20:57:13.581Z,73.23
2022-08-23T20:59:44.485Z,73.61
2022-08-23T21:02:12.433Z,73.78
2022-08-23T21:04:40.299Z,73.66
2022-08-23T21:07:08.511Z,74.15
2022-08-23T21:09:36.002Z,73.97
2022-08-23T21:12:03.660Z,73.98
2022-08-23T21:14:30.957Z,73.79
2022-08-23T21:16:58.462Z,74.11
2022-08-23T21:19:25.751Z,73.79
2022-08-23T21:21:53.077Z,73.74
2022-08-23T21:24:20.372Z,73.98
2022-08-23T21:26:47.762Z,73.65
2022-08-23T21:29:15.077Z,74.05
2022-08-23T21:31:42.500Z,74.08
2022-08-23T21:34:09.839Z,73.83
2022-08-23T21:36:37.607Z,74.33
2022-08-23T21:39:05.315Z,74.00
2022-08-23T21:41:35.686Z,74.14
2022-08-23T21:44:04.715Z,74.42
2022-08-23T21:46:32.777Z,73.91
2022-08-23T21:49:00.614Z,74.32
2022-08-23T21:51:28.134Z,74.53
2022-08-23T21:53:55.798Z,74.33
2022-08-23T21:56:23.210Z,74.64
2022-08-23T21:58:57.148Z,74.83
2022-08-23T22:01:24.635Z,75.13
2022-08-23T22:03:56.604Z,75.56
2022-08-23T22:06:24.742Z,75.19
2022-08-23T22:08:52.121Z,74.67
2022-08-23T22:11:19.449Z,74.71
2022-08-23T22:13:47.402Z,74.41
2022-08-23T22:16:14.806Z,74.83
2022-08-23T22:18:43.035Z,74.98
2022-08-23T22:21:10.509Z,74.87
2022-08-23T22:23:42.077Z,75.00
2022-08-23T22:26:09.471Z,75.03
2022-08-23T22:28:36.864Z,75.31
2022-08-23T22:31:05.834Z,75.37
2022-08-23T22:33:33.516Z,75.29
2022-08-23T22:36:10.003Z,75.68
2022-08-23T22:38:38.165Z,75.77
2022-08-23T22:41:05.880Z,75.18
2022-08-23T22:43:33.252Z,75.79
2022-08-23T22:46:01.421Z,75.52
2022-08-23T22:48:30.958Z,75.73
2022-08-23T22:51:21.362Z,76.03
2022-08-23T22:53:54.094Z,76.09
2022-08-23T22:56:23.613Z,76.30
2022-08-23T22:58:52.717Z,76.09
2022-08-23T23:01:22.656Z,76.24
2022-08-23T23:03:51.441Z,76.66
2022-08-23T23:06:19.969Z,76.38
2022-08-23T23:08:47.913Z,77.02
2022-08-23T23:11:15.754Z,76.59
2022-08-23T23:13:43.216Z,76.52
2022-08-23T23:16:16.631Z,76.96
2022-08-23T23:19:04.247Z,76.68
2022-08-23T23:21:36.258Z,77.09
2022-08-23T23:24:03.943Z,76.59
2022-08-23T23:26:31.311Z,77.15
2022-08-23T23:28:58.626Z,76.71
2022-08-23T23:31:25.986Z,76.47
2022-08-23T23:33:53.400Z,76.21
2022-08-23T23:36:21.096Z,76.41
2022-08-23T23:38:48.406Z,76.43
2022-08-23T23:41:15.932Z,76.19
2022-08-23T23:43:43.319Z,76.61
2022-08-23T23:46:12.831Z,76.87
2022-08-23T23:48:44.642Z,76.67
2022-08-23T23:51:20.006Z,76.43
2022-08-23T23:53:47.390Z,76.85
2022-08-23T23:56:15.260Z,77.28
2022-08-23T23:58:42.644Z,77.04
